Time;durP1;ratioP1;P1;durP2;ratioP2;P2;SDS_P1;SDS_P2;PMS_P1;PMS_P2;Temp;Humidity;BMP_temperature;BMP_pressure;BME280_temperature;BME280_humidity;BME280_pressure;Samples;Min_cycle;Max_cycle;Signal;HPM_P1;HPM_P2
2022/05/05 00:01:42;;;;;;;6.63;5.93;;;15.70;99.90;;;;;;5116559;28;20178;-67
2022/05/05 00:04:08;;;;;;;6.90;5.93;;;15.70;99.90;;;;;;5116772;28;20206;-69
2022/05/05 00:06:35;;;;;;;8.10;6.27;;;15.70;99.90;;;;;;5116413;28;20308;-68
2022/05/05 00:09:00;;;;;;;7.23;5.50;;;15.70;99.90;;;;;;5116501;28;20159;-68
2022/05/05 00:14:31;;;;;;;6.90;6.20;;;15.50;99.90;;;;;;5117327;28;20157;-69
2022/05/05 00:17:01;;;;;;;10.07;6.40;;;15.40;99.90;;;;;;5117511;28;20551;-69
2022/05/05 00:19:29;;;;;;;8.50;6.27;;;15.50;99.90;;;;;;5117913;28;20158;-69
2022/05/05 00:21:54;;;;;;;9.20;6.97;;;15.40;99.90;;;;;;5120222;28;20165;-68
2022/05/05 00:24:21;;;;;;;7.90;6.73;;;15.50;99.90;;;;;;5143345;27;20209;-68
2022/05/05 00:26:46;;;;;;;7.63;6.43;;;15.40;99.90;;;;;;5124453;28;20177;-67
2022/05/05 00:29:13;;;;;;;9.77;6.97;;;15.40;99.90;;;;;;5121665;28;20161;-68
2022/05/05 00:31:38;;;;;;;10.03;7.00;;;15.40;99.90;;;;;;5123774;28;20162;-68
2022/05/05 00:34:04;;;;;;;7.57;6.77;;;15.40;99.90;;;;;;5124916;28;20238;-70
2022/05/05 00:36:30;;;;;;;7.80;6.63;;;15.40;99.90;;;;;;5123635;28;20158;-68
2022/05/05 00:38:55;;;;;;;7.83;6.87;;;15.40;99.90;;;;;;5124879;28;20162;-69
2022/05/05 00:41:23;;;;;;;10.73;6.70;;;15.40;99.90;;;;;;5122344;28;20191;-67
2022/05/05 00:43:49;;;;;;;8.47;7.00;;;15.40;99.90;;;;;;5121462;28;20186;-69
2022/05/05 00:46:15;;;;;;;8.23;6.67;;;15.30;99.90;;;;;;5121107;28;20225;-70
2022/05/05 00:48:43;;;;;;;8.47;6.90;;;15.30;99.90;;;;;;5119796;28;20616;-68
2022/05/05 00:51:10;;;;;;;8.63;6.83;;;15.30;99.90;;;;;;5119469;28;20155;-68
2022/05/05 00:53:35;;;;;;;9.07;7.33;;;15.30;99.90;;;;;;5122158;28;20216;-68
2022/05/05 00:56:07;;;;;;;8.43;6.67;;;15.30;99.90;;;;;;5115661;28;20162;-68
2022/05/05 00:58:33;;;;;;;11.20;7.43;;;15.40;99.90;;;;;;5117027;28;20203;-67
2022/05/05 01:01:04;;;;;;;7.07;6.40;;;15.30;99.90;;;;;;5116209;28;20178;-68
2022/05/05 01:03:37;;;;;;;12.37;7.13;;;15.30;99.90;;;;;;5115703;28;20309;-67
2022/05/05 01:06:06;;;;;;;11.00;7.60;;;15.20;99.90;;;;;;5115345;28;20162;-68
2022/05/05 01:08:36;;;;;;;11.23;8.13;;;15.20;99.90;;;;;;5115557;28;20170;-69
2022/05/05 01:11:02;;;;;;;8.07;7.10;;;15.20;99.90;;;;;;5115268;28;20653;-68
2022/05/05 01:13:29;;;;;;;10.47;7.10;;;15.20;99.90;;;;;;5115661;28;20204;-69
2022/05/05 01:15:56;;;;;;;9.97;7.10;;;15.20;99.90;;;;;;5115146;28;20170;-67
2022/05/05 01:18:22;;;;;;;11.03;7.63;;;15.30;99.90;;;;;;5114821;28;20162;-67
2022/05/05 01:20:50;;;;;;;8.77;7.63;;;15.30;99.90;;;;;;5114416;28;20167;-68
2022/05/05 01:23:16;;;;;;;8.93;7.40;;;15.20;99.90;;;;;;5114940;28;20633;-68
2022/05/05 01:28:32;;;;;;;9.87;8.23;;;15.20;99.90;;;;;;5115057;28;20157;-68
2022/05/05 01:30:59;;;;;;;10.03;7.53;;;15.10;99.90;;;;;;5115487;28;20154;-69
2022/05/05 01:33:27;;;;;;;8.60;7.63;;;15.10;99.90;;;;;;5115222;28;20166;-68
2022/05/05 01:35:54;;;;;;;8.27;7.47;;;15.10;99.90;;;;;;5114639;28;20161;-67
2022/05/05 01:38:25;;;;;;;9.77;7.73;;;15.10;99.90;;;;;;5114721;28;20169;-68
2022/05/05 01:40:51;;;;;;;10.83;8.07;;;15.10;99.90;;;;;;5114233;28;20257;-68
2022/05/05 01:43:20;;;;;;;16.63;8.57;;;15.10;99.90;;;;;;5115914;28;20202;-68
2022/05/05 01:45:46;;;;;;;11.10;8.73;;;15.00;99.90;;;;;;5115217;28;20162;-68
2022/05/05 01:48:13;;;;;;;11.67;8.40;;;15.10;99.90;;;;;;5115062;28;20166;-69
2022/05/05 01:50:38;;;;;;;11.63;8.67;;;15.10;99.90;;;;;;5097831;28;20259;-68
2022/05/05 01:53:05;;;;;;;12.13;8.20;;;15.10;99.90;;;;;;5133490;27;20225;-70
2022/05/05 01:55:32;;;;;;;10.57;7.83;;;15.10;99.90;;;;;;5139796;27;20177;-68
2022/05/05 01:58:01;;;;;;;15.03;8.10;;;15.10;99.90;;;;;;5123614;28;20544;-68
2022/05/05 02:00:27;;;;;;;11.93;8.00;;;15.10;99.90;;;;;;5119050;28;20220;-68
2022/05/05 02:02:53;;;;;;;10.13;8.60;;;15.10;99.90;;;;;;5119870;28;20561;-68
2022/05/05 02:05:19;;;;;;;9.17;7.93;;;15.10;99.90;;;;;;5130618;27;20661;-67
2022/05/05 02:07:46;;;;;;;10.10;7.90;;;15.10;99.90;;;;;;5114535;28;20227;-68
2022/05/05 02:10:14;;;;;;;9.30;8.10;;;15.10;99.90;;;;;;5113992;28;20235;-68
2022/05/05 02:12:41;;;;;;;10.80;8.43;;;15.10;99.90;;;;;;5114655;28;20203;-69
2022/05/05 02:15:08;;;;;;;12.03;8.70;;;15.10;99.90;;;;;;5113845;28;20184;-67
2022/05/05 02:17:35;;;;;;;13.47;9.03;;;15.10;99.90;;;;;;5113866;28;20202;-68
2022/05/05 02:20:01;;;;;;;11.13;8.33;;;15.00;99.90;;;;;;5114660;28;20245;-68
2022/05/05 02:22:30;;;;;;;10.33;8.47;;;15.00;99.90;;;;;;5114505;28;20162;-69
2022/05/05 02:24:56;;;;;;;10.60;8.07;;;15.00;99.90;;;;;;5114840;28;20645;-69
2022/05/05 02:27:21;;;;;;;10.93;9.00;;;15.00;99.90;;;;;;5115844;28;20170;-70
2022/05/05 02:29:48;;;;;;;11.60;8.97;;;15.00;99.90;;;;;;5133441;28;20177;-68
2022/05/05 02:32:14;;;;;;;12.23;8.87;;;15.00;99.90;;;;;;5118288;28;20227;-68
2022/05/05 02:34:40;;;;;;;12.00;8.93;;;14.90;99.90;;;;;;5131894;28;20181;-68
2022/05/05 02:39:50;;;;;;;10.47;8.50;;;14.90;99.90;;;;;;5114252;28;20168;-67
2022/05/05 02:42:17;;;;;;;11.70;8.60;;;14.90;99.90;;;;;;5114106;28;20166;-68
2022/05/05 02:44:43;;;;;;;11.00;8.80;;;14.80;99.90;;;;;;5129594;28;20656;-69
2022/05/05 02:47:09;;;;;;;9.37;8.37;;;14.80;99.90;;;;;;5114092;28;20219;-68
2022/05/05 02:49:35;;;;;;;14.67;9.60;;;14.70;99.90;;;;;;5114102;28;20163;-68
2022/05/05 02:52:02;;;;;;;10.93;8.23;;;14.70;99.90;;;;;;5114617;28;20258;-68
2022/05/05 02:57:12;;;;;;;14.07;9.73;;;14.70;99.90;;;;;;5118006;28;20173;-68
2022/05/05 02:59:38;;;;;;;11.57;8.93;;;14.70;99.90;;;;;;5134290;27;20170;-67
2022/05/05 03:02:04;;;;;;;12.20;9.47;;;14.60;99.90;;;;;;5099436;28;20230;-67
2022/05/05 03:04:29;;;;;;;12.60;9.37;;;14.60;99.90;;;;;;5118079;28;20252;-69
2022/05/05 03:06:55;;;;;;;12.23;9.37;;;14.60;99.90;;;;;;5117938;28;20166;-67
2022/05/05 03:09:20;;;;;;;10.53;8.67;;;14.60;99.90;;;;;;5118545;28;20166;-67
2022/05/05 03:11:46;;;;;;;9.37;7.77;;;14.50;99.90;;;;;;5120801;28;20637;-69
2022/05/05 03:14:11;;;;;;;11.43;8.43;;;14.50;99.90;;;;;;5120471;28;20165;-66
2022/05/05 03:16:37;;;;;;;12.43;9.07;;;14.50;99.90;;;;;;5101292;28;20188;-69
2022/05/05 03:19:03;;;;;;;10.80;8.30;;;14.40;99.90;;;;;;5118234;28;20169;-67
2022/05/05 03:21:28;;;;;;;10.63;9.30;;;14.40;99.90;;;;;;5117881;28;20535;-66
2022/05/05 03:23:54;;;;;;;11.73;9.27;;;14.40;99.90;;;;;;5135390;27;20205;-68
2022/05/05 03:26:19;;;;;;;12.27;8.80;;;14.40;99.90;;;;;;5138602;27;20170;-67
2022/05/05 03:28:45;;;;;;;13.37;9.93;;;14.30;99.90;;;;;;5117276;28;20173;-67
2022/05/05 03:31:10;;;;;;;12.53;9.47;;;14.20;99.90;;;;;;5116875;28;20173;-67
2022/05/05 03:33:36;;;;;;;11.73;9.20;;;14.20;99.90;;;;;;5133355;27;20182;-68
2022/05/05 03:36:03;;;;;;;13.10;9.63;;;14.20;99.90;;;;;;5117478;28;20158;-68
2022/05/05 03:38:29;;;;;;;12.40;9.93;;;14.20;99.90;;;;;;5116965;28;20586;-68
2022/05/05 03:40:54;;;;;;;12.90;8.80;;;14.20;99.90;;;;;;5117415;28;20166;-69
2022/05/05 03:43:20;;;;;;;20.37;10.13;;;14.10;99.90;;;;;;5117308;28;20241;-68
2022/05/05 03:45:46;;;;;;;11.17;9.20;;;14.00;99.90;;;;;;5116971;28;20269;-69
2022/05/05 03:48:11;;;;;;;15.47;9.67;;;14.00;99.90;;;;;;5117132;28;20167;-67
2022/05/05 03:50:37;;;;;;;10.77;8.77;;;14.00;99.90;;;;;;5116774;28;20181;-70
2022/05/05 03:53:03;;;;;;;11.07;9.03;;;14.00;99.90;;;;;;5117101;28;20158;-69
2022/05/05 03:55:29;;;;;;;13.73;9.37;;;14.00;99.90;;;;;;5133361;27;20204;-68
2022/05/05 03:57:55;;;;;;;13.50;9.17;;;14.00;99.90;;;;;;5117534;28;20207;-68
2022/05/05 04:00:22;;;;;;;14.40;10.10;;;14.00;99.90;;;;;;5125290;28;20166;-69
2022/05/05 04:03:30;;;;;;;12.93;10.07;;;14.00;99.90;;;;;;5125466;28;20737;-69
2022/05/05 04:05:37;;;;;;;14.17;9.93;;;13.90;99.90;;;;;;5123201;28;20217;-67
2022/05/05 04:08:04;;;;;;;13.37;9.57;;;13.90;99.90;;;;;;5122318;28;20158;-68
2022/05/05 04:10:30;;;;;;;13.00;10.03;;;13.90;99.90;;;;;;5120823;28;20166;-67
2022/05/05 04:12:56;;;;;;;16.93;10.03;;;13.90;99.90;;;;;;5117412;28;20154;-67
2022/05/05 04:15:23;;;;;;;11.80;9.90;;;13.90;99.90;;;;;;5116967;28;20189;-69
2022/05/05 04:17:49;;;;;;;16.10;9.73;;;14.00;99.90;;;;;;5117609;28;20232;-69
2022/05/05 04:20:15;;;;;;;12.53;9.30;;;14.00;99.90;;;;;;5119283;28;20501;-68
2022/05/05 04:22:41;;;;;;;11.13;9.07;;;14.00;99.90;;;;;;5120232;28;20205;-67
2022/05/05 04:25:08;;;;;;;11.97;8.93;;;13.90;99.90;;;;;;5119711;28;20273;-68
2022/05/05 04:27:34;;;;;;;14.63;9.33;;;13.90;99.90;;;;;;5117009;28;20237;-67
2022/05/05 04:30:01;;;;;;;14.00;8.80;;;14.00;99.90;;;;;;5099144;28;20499;-67
2022/05/05 04:32:28;;;;;;;11.93;8.47;;;14.00;99.90;;;;;;5118321;28;20166;-68
2022/05/05 04:34:54;;;;;;;11.13;9.23;;;14.00;99.90;;;;;;5117302;28;20162;-69
2022/05/05 04:37:20;;;;;;;10.27;9.13;;;14.10;99.90;;;;;;5117697;28;20159;-67
2022/05/05 04:39:46;;;;;;;11.50;8.73;;;14.10;99.90;;;;;;5117898;28;20227;-67
2022/05/05 04:42:12;;;;;;;12.70;8.77;;;14.10;99.90;;;;;;5118975;28;20597;-66
2022/05/05 04:44:37;;;;;;;14.53;8.60;;;14.00;99.90;;;;;;5120565;28;20287;-68
2022/05/05 04:47:03;;;;;;;11.47;8.83;;;13.90;99.90;;;;;;5121126;28;20159;-67
2022/05/05 04:49:30;;;;;;;16.20;9.47;;;14.00;99.90;;;;;;5121633;28;20253;-67
2022/05/05 04:51:56;;;;;;;13.53;9.10;;;14.10;99.90;;;;;;5133242;27;20167;-68
2022/05/05 04:54:22;;;;;;;14.17;8.23;;;14.10;99.90;;;;;;5115487;28;20173;-69
2022/05/05 04:56:47;;;;;;;13.73;9.50;;;14.10;99.90;;;;;;5115303;28;20480;-68
2022/05/05 04:59:13;;;;;;;12.57;8.80;;;14.10;99.90;;;;;;5132172;27;20174;-66
2022/05/05 05:01:39;;;;;;;12.83;9.13;;;14.30;99.90;;;;;;5114853;28;20177;-68
2022/05/05 05:04:06;;;;;;;11.20;8.40;;;14.30;99.90;;;;;;5115714;28;20607;-68
2022/05/05 05:06:32;;;;;;;14.83;8.70;;;14.20;99.90;;;;;;5115355;28;20589;-67
2022/05/05 05:08:58;;;;;;;12.27;8.97;;;14.10;99.90;;;;;;5115349;28;20171;-69
2022/05/05 05:11:24;;;;;;;11.77;9.30;;;14.30;99.90;;;;;;5115341;28;20158;-67
2022/05/05 05:13:49;;;;;;;13.10;8.97;;;14.40;99.90;;;;;;5130960;27;20166;-68
2022/05/05 05:16:15;;;;;;;17.00;10.37;;;14.40;99.90;;;;;;5114943;28;20195;-67
2022/05/05 05:18:41;;;;;;;20.07;10.83;;;14.60;99.90;;;;;;5115096;28;20166;-68
2022/05/05 05:21:06;;;;;;;14.17;11.37;;;14.70;99.90;;;;;;5115125;28;20185;-69
2022/05/05 05:23:32;;;;;;;21.33;11.43;;;14.60;99.90;;;;;;5115327;28;20168;-66
2022/05/05 05:25:58;;;;;;;15.10;11.20;;;14.60;99.90;;;;;;5131267;27;20181;-68
2022/05/05 05:28:25;;;;;;;15.53;11.30;;;14.60;99.90;;;;;;5115110;28;20170;-66
2022/05/05 05:30:51;;;;;;;14.03;10.87;;;14.80;99.90;;;;;;5114804;28;20214;-68
2022/05/05 05:33:17;;;;;;;14.07;10.40;;;14.80;99.90;;;;;;5115671;28;20162;-67
2022/05/05 05:35:44;;;;;;;13.20;11.27;;;14.90;99.90;;;;;;5096840;28;20178;-68
2022/05/05 05:38:11;;;;;;;16.47;12.03;;;14.90;99.90;;;;;;5115229;28;20247;-67
2022/05/05 05:40:37;;;;;;;22.37;12.93;;;14.90;99.90;;;;;;5115460;28;20583;-68
2022/05/05 05:43:03;;;;;;;15.40;10.83;;;15.00;99.90;;;;;;5114811;28;20328;-65
2022/05/05 05:45:29;;;;;;;17.63;12.53;;;14.90;99.90;;;;;;5114555;28;20204;-68
2022/05/05 05:47:55;;;;;;;17.63;12.70;;;14.90;99.90;;;;;;5114609;28;20249;-66
2022/05/05 05:50:20;;;;;;;24.60;13.47;;;15.00;99.90;;;;;;5114841;28;20162;-67
2022/05/05 05:52:46;;;;;;;17.27;12.20;;;15.00;99.90;;;;;;5114659;28;20617;-66
2022/05/05 05:55:12;;;;;;;16.53;11.90;;;14.90;99.90;;;;;;5114283;28;20177;-67
2022/05/05 05:57:38;;;;;;;16.30;12.90;;;15.00;99.90;;;;;;5095492;28;20523;-68
2022/05/05 06:00:04;;;;;;;16.07;12.70;;;15.10;99.90;;;;;;5113795;28;20246;-66
2022/05/05 06:05:14;;;;;;;20.43;13.07;;;15.10;99.90;;;;;;5114253;28;20200;-68
2022/05/05 06:07:40;;;;;;;16.40;12.33;;;15.20;99.90;;;;;;5095988;28;20268;-68
2022/05/05 06:10:06;;;;;;;16.43;12.97;;;15.20;99.90;;;;;;5114675;28;20205;-67
2022/05/05 06:12:31;;;;;;;16.97;13.07;;;15.20;99.90;;;;;;5115626;28;20485;-67
2022/05/05 06:14:57;;;;;;;17.43;13.20;;;15.10;99.90;;;;;;5097783;28;20181;-69
2022/05/05 06:17:22;;;;;;;16.33;12.70;;;15.20;99.90;;;;;;5114334;28;20244;-69
2022/05/05 06:19:48;;;;;;;16.97;13.23;;;15.20;99.90;;;;;;5118441;27;20177;-67
2022/05/05 06:22:14;;;;;;;17.40;13.70;;;15.10;99.90;;;;;;5134522;27;20157;-68
2022/05/05 06:24:39;;;;;;;17.57;13.27;;;15.20;99.90;;;;;;5134660;27;20244;-67
2022/05/05 06:27:05;;;;;;;20.50;14.17;;;15.10;99.90;;;;;;5134283;27;20166;-67
2022/05/05 06:29:31;;;;;;;20.67;13.47;;;15.00;99.90;;;;;;5134402;28;20241;-67
2022/05/05 06:31:56;;;;;;;17.50;12.90;;;15.00;99.90;;;;;;5134418;28;20162;-68
2022/05/05 06:34:22;;;;;;;21.20;13.70;;;15.10;99.90;;;;;;5134431;28;20157;-68
2022/05/05 06:36:47;;;;;;;18.60;13.23;;;15.10;99.90;;;;;;5135099;28;20200;-67
2022/05/05 06:39:13;;;;;;;25.33;12.60;;;15.10;99.90;;;;;;5134475;28;20162;-68
2022/05/05 06:41:39;;;;;;;21.00;12.87;;;15.00;99.90;;;;;;5134908;28;20274;-68
2022/05/05 06:44:05;;;;;;;19.20;13.40;;;15.10;99.90;;;;;;5134565;28;20232;-67
2022/05/05 06:46:30;;;;;;;16.67;12.37;;;15.00;99.90;;;;;;5134592;28;20562;-66
2022/05/05 06:48:56;;;;;;;20.03;12.63;;;15.10;99.90;;;;;;5134992;28;20161;-68
2022/05/05 06:51:22;;;;;;;20.37;12.27;;;15.10;99.90;;;;;;5135624;28;20249;-67
2022/05/05 06:53:47;;;;;;;15.37;11.63;;;15.00;99.90;;;;;;5135734;28;20189;-69
2022/05/05 06:56:13;;;;;;;21.70;12.37;;;14.90;99.90;;;;;;5138311;28;20188;-69
2022/05/05 06:58:38;;;;;;;18.27;11.67;;;15.10;99.90;;;;;;5138404;28;20165;-69
2022/05/05 07:05:23;;;;;;;16.20;12.30;;;15.20;99.90;;;;;;5117968;28;20298;-68
2022/05/05 07:06:34;;;;;;;16.63;12.03;;;15.20;99.90;;;;;;5113343;28;20172;-68
2022/05/05 07:11:44;;;;;;;16.20;12.23;;;14.90;99.90;;;;;;5113759;28;20169;-68
2022/05/05 07:14:09;;;;;;;14.20;11.40;;;14.90;99.90;;;;;;5114091;28;20163;-68
2022/05/05 07:16:35;;;;;;;13.67;10.73;;;14.90;99.90;;;;;;5114113;28;20647;-67
2022/05/05 07:19:01;;;;;;;14.63;10.77;;;15.00;99.90;;;;;;5113960;28;20166;-66
2022/05/05 07:21:26;;;;;;;14.53;11.00;;;15.00;99.90;;;;;;5114141;28;20169;-68
2022/05/05 07:23:52;;;;;;;15.37;11.17;;;15.00;99.90;;;;;;5096373;28;20221;-66
2022/05/05 07:26:18;;;;;;;15.57;11.07;;;15.00;99.90;;;;;;5113532;28;20170;-68
2022/05/05 07:28:43;;;;;;;17.27;10.90;;;15.00;99.90;;;;;;5114352;28;20216;-66
2022/05/05 07:31:09;;;;;;;16.83;11.83;;;15.00;99.90;;;;;;5114506;28;20158;-67
2022/05/05 07:33:35;;;;;;;14.83;10.37;;;15.00;99.90;;;;;;5097022;28;20174;-69
2022/05/05 07:36:01;;;;;;;13.67;9.63;;;15.10;99.90;;;;;;5116756;28;20154;-67
2022/05/05 07:38:26;;;;;;;13.23;9.50;;;15.30;99.90;;;;;;5116786;28;20628;-68
2022/05/05 07:40:52;;;;;;;14.80;9.73;;;15.40;99.90;;;;;;5121906;28;20154;-70
2022/05/05 07:43:19;;;;;;;12.40;8.70;;;15.40;99.90;;;;;;5123205;28;20158;-67
2022/05/05 07:45:45;;;;;;;17.57;8.83;;;15.30;99.90;;;;;;5118987;28;20500;-66
2022/05/05 07:48:10;;;;;;;12.63;9.57;;;15.30;99.90;;;;;;5117451;28;20231;-67
2022/05/05 07:50:36;;;;;;;11.90;9.50;;;15.40;99.90;;;;;;5117123;28;20166;-69
2022/05/05 07:53:02;;;;;;;12.80;9.37;;;15.40;99.90;;;;;;5117109;28;20150;-66
2022/05/05 07:55:28;;;;;;;13.83;9.77;;;15.60;99.90;;;;;;5116700;28;20165;-66
2022/05/05 07:57:54;;;;;;;11.37;9.07;;;15.60;99.90;;;;;;5116631;28;20162;-68
2022/05/05 08:00:21;;;;;;;15.50;10.00;;;15.70;99.90;;;;;;5116693;28;20166;-65
2022/05/05 08:02:47;;;;;;;15.37;10.77;;;15.90;99.90;;;;;;5116403;28;20233;-65
2022/05/05 08:05:12;;;;;;;15.60;10.10;;;16.00;99.90;;;;;;5116366;28;20707;-67
2022/05/05 08:07:44;;;;;;;14.27;10.30;;;15.90;99.90;;;;;;5116208;28;20501;-67
2022/05/05 08:10:10;;;;;;;16.10;10.13;;;16.00;99.90;;;;;;5097765;28;20173;-67
2022/05/05 08:12:36;;;;;;;13.03;9.83;;;16.10;99.90;;;;;;5098043;28;20185;-68
2022/05/05 08:15:02;;;;;;;12.13;8.93;;;16.40;99.90;;;;;;5116005;28;20170;-67
2022/05/05 08:17:28;;;;;;;12.80;10.77;;;16.50;99.90;;;;;;5116593;28;20249;-68
2022/05/05 08:19:54;;;;;;;15.02;9.65;;;16.60;99.90;;;;;;5115556;28;20158;-68
2022/05/05 08:22:20;;;;;;;12.87;9.20;;;16.60;99.90;;;;;;5115801;28;20166;-67
2022/05/05 08:30:14;;;;;;;13.37;9.63;;;16.50;99.90;;;;;;5116643;28;20211;-66
2022/05/05 08:32:39;;;;;;;14.40;10.00;;;16.30;99.90;;;;;;5116211;28;20162;-67
2022/05/05 08:35:05;;;;;;;15.25;10.23;;;16.30;99.90;;;;;;5115570;28;20207;-68
2022/05/05 08:37:31;;;;;;;11.82;9.05;;;16.40;99.90;;;;;;5115307;28;20513;-68
2022/05/05 08:39:56;;;;;;;14.30;9.85;;;16.40;99.90;;;;;;5115757;28;20167;-67
2022/05/05 08:42:24;;;;;;;14.70;9.40;;;16.80;99.90;;;;;;5115634;28;20169;-67
2022/05/05 08:44:49;;;;;;;11.13;8.63;;;16.90;99.90;;;;;;5097933;28;20617;-67
2022/05/05 08:47:19;;;;;;;12.23;9.45;;;17.00;99.90;;;;;;5115623;28;20158;-67
2022/05/05 08:49:45;;;;;;;13.50;9.43;;;17.10;99.90;;;;;;5115562;28;20169;-67
2022/05/05 08:52:17;;;;;;;11.13;9.15;;;17.00;99.90;;;;;;5115917;28;20163;-67
2022/05/05 08:54:43;;;;;;;10.98;8.32;;;17.50;99.90;;;;;;5115654;28;20162;-69
2022/05/05 08:57:08;;;;;;;11.55;8.45;;;17.60;99.90;;;;;;5115295;28;20166;-66
2022/05/05 08:59:34;;;;;;;11.10;8.85;;;17.80;99.90;;;;;;5116808;28;20165;-67
2022/05/05 09:01:59;;;;;;;13.45;8.98;;;17.90;99.90;;;;;;5118392;28;20226;-68
2022/05/05 09:04:25;;;;;;;10.85;8.52;;;18.00;99.90;;;;;;5116744;28;20210;-67
2022/05/05 09:06:53;;;;;;;12.00;8.63;;;18.40;99.90;;;;;;5118393;28;20573;-67
2022/05/05 09:09:31;;;;;;;14.55;8.98;;;18.80;99.90;;;;;;5119051;28;20170;-66
2022/05/05 09:12:13;;;;;;;11.57;8.07;;;18.80;99.90;;;;;;5118554;28;20626;-67
2022/05/05 09:14:43;;;;;;;15.95;8.88;;;19.20;99.90;;;;;;5116214;28;20193;-67
2022/05/05 09:17:11;;;;;;;11.65;8.98;;;19.20;99.90;;;;;;5116000;28;20192;-68
2022/05/05 09:19:38;;;;;;;11.45;8.50;;;19.00;99.90;;;;;;5115205;28;20330;-66
2022/05/05 09:22:06;;;;;;;11.00;7.63;;;19.30;99.90;;;;;;5097112;28;20196;-66
2022/05/05 09:24:35;;;;;;;13.32;8.70;;;19.40;99.90;;;;;;5115471;28;20530;-67
2022/05/05 09:27:17;;;;;;;9.82;7.82;;;19.60;99.90;;;;;;5115290;28;20162;-67
2022/05/05 09:29:59;;;;;;;10.82;8.23;;;19.80;99.90;;;;;;5115076;28;20154;-67
2022/05/05 09:32:51;;;;;;;12.00;8.30;;;19.90;99.90;;;;;;5097428;28;20178;-67
2022/05/05 09:35:18;;;;;;;10.73;7.60;;;19.70;99.90;;;;;;5111009;28;20565;-68
2022/05/05 09:37:52;;;;;;;18.05;7.95;;;19.60;99.90;;;;;;5115192;28;20249;-68
2022/05/05 09:40:20;;;;;;;14.20;6.78;;;19.40;99.90;;;;;;5115166;28;20177;-67
2022/05/05 09:42:49;;;;;;;7.68;6.82;;;19.10;99.90;;;;;;5115910;28;20586;-69
2022/05/05 09:45:26;;;;;;;9.75;6.85;;;19.00;99.90;;;;;;5124861;28;20251;-69
2022/05/05 09:48:00;;;;;;;7.28;6.00;;;18.70;99.90;;;;;;5121793;28;20196;-68
2022/05/05 09:50:28;;;;;;;8.88;6.13;;;18.70;99.90;;;;;;5121271;28;20154;-67
2022/05/05 09:58:26;;;;;;;6.10;5.40;;;19.00;99.90;;;;;;5114877;28;20157;-67
2022/05/05 10:01:04;;;;;;;9.93;6.20;;;19.50;99.90;;;;;;5096085;28;20177;-68
2022/05/05 10:04:01;;;;;;;7.60;6.20;;;19.70;99.90;;;;;;5113718;28;20217;-68
2022/05/05 10:06:30;;;;;;;9.00;5.90;;;19.50;99.90;;;;;;5114901;28;20170;-66
2022/05/05 10:09:05;;;;;;;7.53;6.10;;;19.00;99.90;;;;;;5114282;28;20190;-68
2022/05/05 10:11:32;;;;;;;7.55;5.25;;;19.20;99.90;;;;;;5114682;28;20662;-67
2022/05/05 10:14:01;;;;;;;8.20;5.82;;;19.20;99.90;;;;;;5114798;28;20169;-67
2022/05/05 10:16:27;;;;;;;7.15;5.28;;;19.20;99.90;;;;;;5114934;28;20219;-68
2022/05/05 10:18:53;;;;;;;8.32;5.53;;;19.20;99.90;;;;;;5114644;28;20162;-68
2022/05/05 10:21:31;;;;;;;10.07;5.82;;;19.10;99.90;;;;;;5097858;28;20189;-67
2022/05/05 10:24:12;;;;;;;6.50;5.55;;;18.90;99.90;;;;;;5116870;28;20182;-67
2022/05/05 10:26:38;;;;;;;6.47;5.15;;;19.00;99.90;;;;;;5116783;28;20185;-68
2022/05/05 10:29:03;;;;;;;8.48;5.60;;;19.10;99.90;;;;;;5116922;28;20267;-66
2022/05/05 10:31:33;;;;;;;7.20;5.22;;;19.40;99.90;;;;;;5116607;28;20159;-66
2022/05/05 10:34:07;;;;;;;6.85;5.35;;;19.50;99.90;;;;;;5117002;28;20244;-68
2022/05/05 10:36:34;;;;;;;6.82;4.38;;;19.60;99.90;;;;;;5098240;28;20170;-66
2022/05/05 10:39:17;;;;;;;7.82;4.85;;;19.70;99.90;;;;;;5115431;28;20169;-69
2022/05/05 10:41:43;;;;;;;6.65;4.72;;;19.70;99.90;;;;;;5115055;28;20163;-67
2022/05/05 10:44:23;;;;;;;7.10;4.90;;;19.70;99.90;;;;;;5114100;28;20283;-67
2022/05/05 10:46:54;;;;;;;6.82;4.90;;;20.20;99.90;;;;;;5114528;28;20162;-68
2022/05/05 10:49:32;;;;;;;5.07;4.53;;;20.50;99.90;;;;;;5095590;28;20263;-67
2022/05/05 10:52:10;;;;;;;9.98;4.75;;;20.50;99.50;;;;;;5114130;28;20210;-66
2022/05/05 10:54:37;;;;;;;5.57;4.30;;;20.50;98.90;;;;;;5114743;28;20166;-66
2022/05/05 10:57:25;;;;;;;4.50;4.10;;;20.70;98.10;;;;;;5120498;28;20154;-66
2022/05/05 11:00:13;;;;;;;7.68;4.78;;;20.60;98.00;;;;;;5117837;28;20155;-67
2022/05/05 11:02:57;;;;;;;5.07;3.97;;;20.00;99.80;;;;;;5114892;28;20312;-68
2022/05/05 11:05:28;;;;;;;4.18;3.53;;;20.50;99.70;;;;;;5114115;28;20194;-66
2022/05/05 11:08:07;;;;;;;4.35;3.92;;;20.70;99.10;;;;;;5113657;28;20154;-65
2022/05/05 11:10:48;;;;;;;5.18;4.05;;;20.50;99.30;;;;;;5113722;28;20243;-66
2022/05/05 11:13:35;;;;;;;6.18;4.05;;;20.10;99.90;;;;;;5115236;28;20185;-67
2022/05/05 11:22:24;;;;;;;7.97;4.70;;;20.20;99.90;;;;;;5117770;28;20211;-67
2022/05/05 11:24:53;;;;;;;6.35;4.75;;;20.00;99.90;;;;;;5117690;28;20606;-68
2022/05/05 11:27:21;;;;;;;6.80;4.80;;;20.10;99.90;;;;;;5117230;28;20162;-65
2022/05/05 11:29:57;;;;;;;6.95;4.72;;;20.00;99.90;;;;;;5117258;28;20637;-68
2022/05/05 11:32:29;;;;;;;7.00;4.68;;;19.90;99.90;;;;;;5117336;28;20180;-69
2022/05/05 11:34:55;;;;;;;14.38;4.20;;;19.80;99.90;;;;;;5117121;28;20169;-69
2022/05/05 11:37:20;;;;;;;7.20;4.20;;;19.90;99.90;;;;;;5117225;28;20154;-67
2022/05/05 11:39:48;;;;;;;4.65;3.92;;;19.70;99.90;;;;;;5117411;28;20198;-68
2022/05/05 11:42:14;;;;;;;5.20;4.10;;;19.80;99.90;;;;;;5117775;28;20535;-68
2022/05/05 11:44:44;;;;;;;5.55;4.53;;;20.00;99.90;;;;;;5125468;28;20190;-68
2022/05/05 11:47:18;;;;;;;7.80;4.32;;;20.40;99.90;;;;;;5122258;28;20598;-68
2022/05/05 11:49:46;;;;;;;5.70;4.00;;;20.80;98.60;;;;;;5118520;28;20226;-67
2022/05/05 11:52:22;;;;;;;6.07;4.10;;;20.60;97.60;;;;;;5118954;28;20228;-68
2022/05/05 11:54:55;;;;;;;9.32;4.10;;;20.50;97.30;;;;;;5116615;28;20166;-68
2022/05/05 11:57:32;;;;;;;6.20;4.20;;;20.40;96.10;;;;;;5116491;28;20239;-66
2022/05/05 12:02:41;;;;;;;5.65;3.80;;;20.00;99.50;;;;;;5116258;28;20325;-69
2022/05/05 12:05:08;;;;;;;7.82;4.05;;;20.80;97.30;;;;;;5112913;28;20296;-66
2022/05/05 12:07:34;;;;;;;7.13;3.83;;;21.30;94.20;;;;;;5116573;28;20190;-66
2022/05/05 12:10:06;;;;;;;4.40;4.00;;;21.00;93.30;;;;;;5116360;28;20158;-67
2022/05/05 12:12:31;;;;;;;6.35;4.97;;;20.60;94.50;;;;;;5115998;28;20632;-70
2022/05/05 12:14:59;;;;;;;17.75;12.15;;;20.50;94.80;;;;;;5116401;28;20171;-68
2022/05/05 12:17:32;;;;;;;4.97;4.28;;;20.60;96.50;;;;;;5116467;28;20602;-66
2022/05/05 12:19:59;;;;;;;5.55;4.30;;;21.00;94.90;;;;;;5116587;28;20624;-68
2022/05/05 12:22:30;;;;;;;4.63;3.97;;;21.20;94.30;;;;;;5098465;28;20163;-68
2022/05/05 12:25:14;;;;;;;11.43;3.70;;;21.40;95.00;;;;;;5115364;28;20234;-67
2022/05/05 12:27:47;;;;;;;4.03;3.15;;;21.50;93.30;;;;;;5116496;28;20170;-67
2022/05/05 12:30:32;;;;;;;7.57;4.07;;;21.50;91.10;;;;;;5116225;28;20245;-67
2022/05/05 12:32:58;;;;;;;4.20;3.80;;;21.70;87.20;;;;;;5115746;28;20158;-67
2022/05/05 12:35:34;;;;;;;7.18;3.50;;;21.50;87.90;;;;;;5116263;28;20173;-66
2022/05/05 12:38:01;;;;;;;6.60;4.43;;;21.10;90.50;;;;;;5116000;28;20223;-69
2022/05/05 12:40:28;;;;;;;5.32;4.22;;;21.10;90.10;;;;;;5116380;28;20185;-67
2022/05/05 12:43:02;;;;;;;6.50;4.45;;;20.80;90.60;;;;;;5116475;28;20162;-66
2022/05/05 12:45:31;;;;;;;5.40;4.05;;;21.30;91.40;;;;;;5115705;28;20224;-67
2022/05/05 12:48:02;;;;;;;4.22;3.58;;;21.40;91.50;;;;;;5115983;28;20559;-69
2022/05/05 12:50:41;;;;;;;5.00;3.78;;;21.50;91.20;;;;;;5115810;28;20455;-67
2022/05/05 13:01:34;;;;;;;5.88;4.28;;;21.70;86.60;;;;;;5116198;28;20189;-67
2022/05/05 13:04:05;;;;;;;4.72;3.65;;;21.70;86.60;;;;;;5113318;28;20278;-67
2022/05/05 13:06:31;;;;;;;8.05;3.92;;;21.60;86.20;;;;;;5115907;28;20212;-66
2022/05/05 13:08:57;;;;;;;4.60;3.80;;;21.70;87.40;;;;;;5115866;28;20158;-68
2022/05/05 13:11:23;;;;;;;4.05;3.67;;;21.50;89.40;;;;;;5116100;28;20165;-67
2022/05/05 13:13:50;;;;;;;8.73;4.18;;;21.40;88.90;;;;;;5116299;28;20598;-65
2022/05/05 13:16:16;;;;;;;4.30;3.90;;;21.00;89.20;;;;;;5117297;28;20162;-66
2022/05/05 13:18:42;;;;;;;4.68;4.10;;;20.80;90.70;;;;;;5116163;28;20154;-68
2022/05/05 13:21:09;;;;;;;5.57;3.97;;;21.10;90.10;;;;;;5116623;28;20219;-68
2022/05/05 13:23:35;;;;;;;7.05;4.55;;;21.50;90.40;;;;;;5117153;28;20241;-66
2022/05/05 13:26:01;;;;;;;9.02;4.20;;;21.40;88.30;;;;;;5118125;28;20174;-67
2022/05/05 13:28:27;;;;;;;6.53;4.07;;;21.50;88.00;;;;;;5119709;28;20212;-68
2022/05/05 13:30:53;;;;;;;5.38;3.80;;;21.60;86.70;;;;;;5117707;28;20166;-65